Time;durP1;ratioP1;P1;durP2;ratioP2;P2;SDS_P1;SDS_P2;PMS_P1;PMS_P2;Temp;Humidity;BMP_temperature;BMP_pressure;BME280_temperature;BME280_humidity;BME280_pressure;Samples;Min_cycle;Max_cycle;Signal;HPM_P1;HPM_P2
2022/11/13 00:01:56;;;;;;;;;;;17.60;77.30;;;;;;10544615;27;89969;-67
2022/11/13 00:07:00;;;;;;;;;;;17.60;77.30;;;;;;10525719;27;90051;-68
2022/11/13 00:12:02;;;;;;;;;;;17.60;77.30;;;;;;10524634;27;88925;-68
2022/11/13 00:17:03;;;;;;;;;;;17.50;77.10;;;;;;10525238;27;89025;-67
2022/11/13 00:22:05;;;;;;;;;;;17.50;77.20;;;;;;10543904;27;89082;-67
2022/11/13 00:27:07;;;;;;;;;;;17.50;77.00;;;;;;10525135;27;88122;-67
2022/11/13 00:32:08;;;;;;;;;;;17.50;77.00;;;;;;10543057;27;89031;-68
2022/11/13 00:37:10;;;;;;;;;;;17.50;77.00;;;;;;10542434;27;88357;-68
2022/11/13 00:42:12;;;;;;;;;;;17.50;77.00;;;;;;10543079;27;89045;-67
2022/11/13 00:47:13;;;;;;;;;;;17.50;76.90;;;;;;10544808;27;89302;-67
2022/11/13 00:52:15;;;;;;;;;;;17.50;76.80;;;;;;10543350;27;89965;-67
2022/11/13 00:57:17;;;;;;;;;;;17.40;76.80;;;;;;10543085;27;88230;-67
2022/11/13 01:02:19;;;;;;;;;;;17.50;76.80;;;;;;10541354;27;89033;-67
2022/11/13 01:07:20;;;;;;;;;;;17.50;76.90;;;;;;10543421;27;89160;-67
2022/11/13 01:12:22;;;;;;;;;;;17.40;76.70;;;;;;10542395;27;89038;-67
2022/11/13 01:17:24;;;;;;;;;;;17.40;76.70;;;;;;10528107;27;89951;-67
2022/11/13 01:22:25;;;;;;;;;;;17.40;76.70;;;;;;10550703;27;88899;-67
2022/11/13 01:27:27;;;;;;;;;;;17.40;76.70;;;;;;10549644;27;89063;-67
2022/11/13 01:32:29;;;;;;;;;;;17.40;76.70;;;;;;10548355;27;88045;-68
2022/11/13 01:37:30;;;;;;;;;;;17.40;76.60;;;;;;10550446;27;91170;-67
2022/11/13 01:42:32;;;;;;;;;;;17.40;76.50;;;;;;10549572;27;90076;-68
2022/11/13 01:47:34;;;;;;;;;;;17.40;76.60;;;;;;10530806;27;88990;-68
2022/11/13 01:52:39;;;;;;;;;;;17.40;76.50;;;;;;10548899;27;91047;-67
2022/11/13 01:57:41;;;;;;;;;;;17.30;76.50;;;;;;10530303;27;89068;-67
2022/11/13 02:02:45;;;;;;;;;;;17.30;76.50;;;;;;10896451;22;90329;-63
2022/11/13 02:07:47;;;;;;;;;;;17.30;76.50;;;;;;10418464;28;90043;-63
2022/11/13 02:12:50;;;;;;;;;;;17.30;76.50;;;;;;10421579;27;90161;-63
2022/11/13 02:17:56;;;;;;;;;;;17.30;76.50;;;;;;10420861;28;88343;-63
2022/11/13 02:23:07;;;;;;;;;;;17.20;76.30;;;;;;10420356;28;90071;-63
2022/11/13 02:28:09;;;;;;;;;;;17.30;76.40;;;;;;10422445;27;89288;-63
2022/11/13 02:33:27;;;;;;;;;;;17.30;76.30;;;;;;10420127;28;89010;-63
2022/11/13 02:38:31;;;;;;;;;;;17.30;76.30;;;;;;10419961;28;88124;-62
2022/11/13 02:43:33;;;;;;;;;;;17.30;76.30;;;;;;10400442;28;89445;-63
2022/11/13 02:48:34;;;;;;;;;;;17.20;76.30;;;;;;10419209;28;89972;-63
2022/11/13 02:53:36;;;;;;;;;;;17.20;76.30;;;;;;10420474;28;89073;-63
2022/11/13 02:58:38;;;;;;;;;;;17.20;76.20;;;;;;10419618;28;88971;-63
2022/11/13 03:03:39;;;;;;;;;;;17.20;76.20;;;;;;10418981;28;90030;-63
2022/11/13 03:08:58;;;;;;;;;;;17.20;76.10;;;;;;10418036;28;89355;-63
2022/11/13 03:13:59;;;;;;;;;;;17.20;76.20;;;;;;10416223;28;88131;-63
2022/11/13 03:19:02;;;;;;;;;;;17.20;76.30;;;;;;10419687;28;88088;-63
2022/11/13 03:24:03;;;;;;;;;;;17.20;76.10;;;;;;10419169;28;89968;-63
2022/11/13 03:29:05;;;;;;;;;;;17.20;76.00;;;;;;10417919;27;89000;-63
2022/11/13 03:34:07;;;;;;;;;;;17.20;76.00;;;;;;10418063;28;89830;-64
2022/11/13 03:39:08;;;;;;;;;;;17.20;76.00;;;;;;10416054;27;89741;-64
2022/11/13 03:44:10;;;;;;;;;;;17.20;75.90;;;;;;10417704;28;88896;-64
2022/11/13 03:49:12;;;;;;;;;;;17.20;75.90;;;;;;10418551;28;89934;-64
2022/11/13 03:54:14;;;;;;;;;;;17.20;75.80;;;;;;10400483;28;89849;-64
2022/11/13 03:59:15;;;;;;;;;;;17.20;75.80;;;;;;10417226;28;88994;-64
2022/11/13 04:04:17;;;;;;;;;;;17.10;75.70;;;;;;10417393;27;88482;-64
2022/11/13 04:09:19;;;;;;;;;;;17.20;75.80;;;;;;10400768;28;88346;-64
2022/11/13 04:14:21;;;;;;;;;;;17.10;75.80;;;;;;10417541;28;89792;-63
2022/11/13 04:19:23;;;;;;;;;;;17.10;75.80;;;;;;10415920;28;89205;-64
2022/11/13 04:24:25;;;;;;;;;;;17.10;75.70;;;;;;10416285;28;90821;-63
2022/11/13 04:29:26;;;;;;;;;;;17.10;75.70;;;;;;10416693;28;90132;-63
2022/11/13 04:34:28;;;;;;;;;;;17.10;75.80;;;;;;10416513;28;90030;-64
2022/11/13 04:39:30;;;;;;;;;;;17.10;75.70;;;;;;10417313;28;89256;-64
2022/11/13 04:44:32;;;;;;;;;;;17.10;75.60;;;;;;10416675;28;91672;-63
2022/11/13 04:49:33;;;;;;;;;;;17.10;75.50;;;;;;10417411;27;89952;-63
2022/11/13 04:54:35;;;;;;;;;;;17.10;75.60;;;;;;10424198;27;89176;-63
2022/11/13 04:59:37;;;;;;;;;;;17.10;75.50;;;;;;10424255;27;88216;-63
2022/11/13 05:04:39;;;;;;;;;;;17.00;75.50;;;;;;10422785;28;89790;-64
2022/11/13 05:09:40;;;;;;;;;;;17.00;75.40;;;;;;10423234;28;89010;-63
2022/11/13 05:14:42;;;;;;;;;;;17.00;75.60;;;;;;10422084;28;90827;-64
2022/11/13 05:19:44;;;;;;;;;;;17.00;75.50;;;;;;10422836;27;90032;-64
2022/11/13 05:24:45;;;;;;;;;;;17.00;75.50;;;;;;10421401;28;89040;-63
2022/11/13 05:29:47;;;;;;;;;;;17.00;75.90;;;;;;10422020;27;89730;-63
2022/11/13 05:34:49;;;;;;;;;;;17.00;75.50;;;;;;10422583;28;88722;-64
2022/11/13 05:39:51;;;;;;;;;;;17.00;74.90;;;;;;10423314;28;88666;-63
2022/11/13 05:44:53;;;;;;;;;;;17.00;75.20;;;;;;10421639;27;89970;-63
2022/11/13 05:49:55;;;;;;;;;;;17.20;75.40;;;;;;10422206;27;88217;-63
2022/11/13 05:54:56;;;;;;;;;;;17.50;75.00;;;;;;10421357;28;89521;-63
2022/11/13 05:59:58;;;;;;;;;;;17.60;74.50;;;;;;10421110;27;88900;-64
2022/11/13 06:05:00;;;;;;;;;;;17.80;73.90;;;;;;10401441;28;90116;-63
2022/11/13 06:10:02;;;;;;;;;;;17.90;73.50;;;;;;10421970;28;90060;-63
2022/11/13 06:15:03;;;;;;;;;;;17.90;73.30;;;;;;10421539;27;90073;-63
2022/11/13 06:20:05;;;;;;;;;;;17.90;73.20;;;;;;10420251;28;89536;-64
2022/11/13 06:25:07;;;;;;;;;;;17.90;73.10;;;;;;10402356;28;89067;-63
2022/11/13 06:30:09;;;;;;;;;;;17.80;73.10;;;;;;10418427;28;89068;-64
2022/11/13 06:35:11;;;;;;;;;;;17.80;73.20;;;;;;10420037;28;88547;-63
2022/11/13 06:40:12;;;;;;;;;;;17.70;73.20;;;;;;10420811;28;88963;-64
2022/11/13 06:45:14;;;;;;;;;;;17.70;73.20;;;;;;10421145;28;89188;-63
2022/11/13 06:50:16;;;;;;;;;;;17.70;73.30;;;;;;10420263;27;88951;-63
2022/11/13 06:55:18;;;;;;;;;;;17.70;73.80;;;;;;10418916;28;89750;-64
2022/11/13 07:00:20;;;;;;;;;;;17.80;73.70;;;;;;10419230;27;89033;-64
2022/11/13 07:05:21;;;;;;;;;;;17.90;73.30;;;;;;10418671;27;89755;-64
2022/11/13 07:10:23;;;;;;;;;;;18.00;73.10;;;;;;10418361;28;89097;-64
2022/11/13 07:15:25;;;;;;;;;;;18.10;72.80;;;;;;10418537;27;89613;-64
2022/11/13 07:20:27;;;;;;;;;;;18.20;72.40;;;;;;10418809;27;90017;-63
2022/11/13 07:25:29;;;;;;;;;;;18.20;72.20;;;;;;10418631;28;89396;-64
2022/11/13 07:30:31;;;;;;;;;;;18.20;72.20;;;;;;10401808;27;88326;-64
2022/11/13 07:35:33;;;;;;;;;;;18.20;72.40;;;;;;10400142;28;88998;-63
2022/11/13 07:40:35;;;;;;;;;;;18.20;72.10;;;;;;10418190;28;89131;-63
2022/11/13 07:45:36;;;;;;;;;;;18.20;72.20;;;;;;10417149;28;89728;-64
2022/11/13 07:50:38;;;;;;;;;;;18.20;73.00;;;;;;10418432;27;88179;-65
2022/11/13 07:55:40;;;;;;;;;;;18.20;73.10;;;;;;10417795;28;88499;-63
2022/11/13 08:00:41;;;;;;;;;;;18.10;73.20;;;;;;10417525;28;89026;-63
2022/11/13 08:05:43;;;;;;;;;;;18.00;73.20;;;;;;10417354;28;90089;-63
2022/11/13 08:10:45;;;;;;;;;;;18.00;73.40;;;;;;10416945;28;88789;-63
2022/11/13 08:15:46;;;;;;;;;;;18.00;73.50;;;;;;10416505;28;89112;-64
2022/11/13 08:20:48;;;;;;;;;;;17.90;73.60;;;;;;10417633;28;88271;-64
2022/11/13 08:25:50;;;;;;;;;;;17.90;73.80;;;;;;10416528;27;90019;-63
2022/11/13 08:30:51;;;;;;;;;;;17.80;73.90;;;;;;10417334;28;88926;-64
2022/11/13 08:35:53;;;;;;;;;;;17.70;74.30;;;;;;10415924;28;89791;-63
2022/11/13 08:40:58;;;;;;;;;;;17.70;74.80;;;;;;10415750;27;109580;-63
2022/11/13 08:46:05;;;;;;;;;;;17.70;76.20;;;;;;10416870;28;88091;-63
2022/11/13 08:51:07;;;;;;;;;;;17.70;74.90;;;;;;10397917;28;89320;-64
2022/11/13 08:56:08;;;;;;;;;;;17.70;75.00;;;;;;10416755;28;90318;-64
2022/11/13 09:01:10;;;;;;;;;;;17.70;75.00;;;;;;10415528;28;90083;-64
2022/11/13 09:06:12;;;;;;;;;;;17.70;74.80;;;;;;10415014;28;89739;-64
2022/11/13 09:11:13;;;;;;;;;;;17.70;74.90;;;;;;10414991;27;89493;-64
2022/11/13 09:16:15;;;;;;;;;;;17.70;74.90;;;;;;10416072;28;89998;-64
2022/11/13 09:21:17;;;;;;;;;;;17.70;74.90;;;;;;10414754;27;89012;-64
2022/11/13 09:26:18;;;;;;;;;;;17.60;75.00;;;;;;10414005;28;89733;-64
2022/11/13 09:31:20;;;;;;;;;;;17.60;74.90;;;;;;10415880;28;89035;-64
2022/11/13 09:36:22;;;;;;;;;;;17.60;75.00;;;;;;10416301;27;88958;-64
2022/11/13 09:41:27;;;;;;;;;;;17.60;75.00;;;;;;10421744;27;90030;-64
2022/11/13 09:46:31;;;;;;;;;;;17.60;75.10;;;;;;10422064;28;90017;-65
2022/11/13 09:51:36;;;;;;;;;;;17.50;75.10;;;;;;10422181;28;88499;-64
2022/11/13 09:56:50;;;;;;;;;;;17.50;75.10;;;;;;10421805;27;88985;-64
2022/11/13 10:01:58;;;;;;;;;;;17.50;75.20;;;;;;10422035;27;89271;-64
2022/11/13 10:07:20;;;;;;;;;;;17.50;75.20;;;;;;10421051;28;88985;-64
2022/11/13 10:12:22;;;;;;;;;;;17.50;75.20;;;;;;10410463;28;90065;-64
2022/11/13 10:17:25;;;;;;;;;;;17.50;75.20;;;;;;10419247;28;89788;-64
2022/11/13 10:22:35;;;;;;;;;;;17.40;75.20;;;;;;10420771;27;88974;-64
2022/11/13 10:27:38;;;;;;;;;;;17.40;75.20;;;;;;10402255;28;89428;-64
2022/11/13 10:32:40;;;;;;;;;;;17.40;75.20;;;;;;10421402;28;89142;-65
2022/11/13 10:37:51;;;;;;;;;;;17.40;75.30;;;;;;10403251;27;90065;-65
2022/11/13 10:42:52;;;;;;;;;;;17.40;75.50;;;;;;10421024;28;90011;-65
2022/11/13 10:47:54;;;;;;;;;;;17.50;75.50;;;;;;10419817;27;89261;-65
2022/11/13 10:53:17;;;;;;;;;;;17.70;75.10;;;;;;10419857;28;88346;-64
2022/11/13 10:58:19;;;;;;;;;;;18.00;74.70;;;;;;10401556;28;89322;-65
2022/11/13 11:03:22;;;;;;;;;;;18.10;74.10;;;;;;10418829;27;89823;-65
2022/11/13 11:08:28;;;;;;;;;;;18.20;73.50;;;;;;10419188;28;90215;-64
2022/11/13 11:13:30;;;;;;;;;;;18.30;73.30;;;;;;10418998;28;89994;-68
2022/11/13 11:18:36;;;;;;;;;;;18.30;74.40;;;;;;10418985;28;90020;-67
2022/11/13 11:23:43;;;;;;;;;;;18.40;74.40;;;;;;10418570;28;89004;-67
2022/11/13 11:28:46;;;;;;;;;;;18.50;74.10;;;;;;10419190;28;90022;-67
2022/11/13 11:33:57;;;;;;;;;;;18.40;74.00;;;;;;10418096;28;89817;-67
2022/11/13 11:39:04;;;;;;;;;;;18.40;74.20;;;;;;10417989;28;89641;-67
2022/11/13 11:44:25;;;;;;;;;;;18.30;74.30;;;;;;10418819;28;88304;-67
2022/11/13 11:49:28;;;;;;;;;;;18.30;74.70;;;;;;10400561;28;90050;-65
2022/11/13 11:54:40;;;;;;;;;;;18.20;75.00;;;;;;10418368;28;89243;-66
2022/11/13 11:59:53;;;;;;;;;;;18.20;75.30;;;;;;10416351;27;90340;-66
2022/11/13 12:05:24;;;;;;;;;;;18.20;75.70;;;;;;10416962;28;89102;-66
2022/11/13 12:10:26;;;;;;;;;;;18.20;75.90;;;;;;10386209;28;90393;-66
2022/11/13 12:15:34;;;;;;;;;;;18.20;75.90;;;;;;10416217;28;90196;-67
2022/11/13 12:20:42;;;;;;;;;;;18.20;76.00;;;;;;10416929;28;88852;-66
2022/11/13 12:25:48;;;;;;;;;;;18.20;76.20;;;;;;10416555;28;89768;-66
2022/11/13 12:31:13;;;;;;;;;;;18.20;76.40;;;;;;10416374;28;89354;-66
2022/11/13 12:36:15;;;;;;;;;;;18.20;76.50;;;;;;10416005;28;87996;-67
2022/11/13 12:41:25;;;;;;;;;;;18.20;76.70;;;;;;10416475;28;89020;-67
2022/11/13 12:46:37;;;;;;;;;;;18.20;76.80;;;;;;10416924;28;90109;-65
2022/11/13 12:51:40;;;;;;;;;;;18.20;77.40;;;;;;10414998;27;90731;-66
2022/11/13 12:56:41;;;;;;;;;;;18.10;76.80;;;;;;10415752;28;88445;-66
2022/11/13 13:01:45;;;;;;;;;;;18.10;76.70;;;;;;10415483;28;90019;-64
2022/11/13 13:06:56;;;;;;;;;;;18.10;76.60;;;;;;10415681;28;89576;-64
2022/11/13 13:11:58;;;;;;;;;;;18.10;76.70;;;;;;10418772;27;90053;-64
2022/11/13 13:17:16;;;;;;;;;;;18.10;76.70;;;;;;10422971;28;88492;-64
2022/11/13 13:22:29;;;;;;;;;;;18.10;76.70;;;;;;10422620;28;89217;-65
2022/11/13 13:27:37;;;;;;;;;;;18.00;76.70;;;;;;10423388;27;87643;-64
2022/11/13 13:32:57;;;;;;;;;;;18.10;76.80;;;;;;10422510;27;90067;-65
2022/11/13 13:38:22;;;;;;;;;;;18.20;76.60;;;;;;10421952;28;89845;-65
2022/11/13 13:43:59;;;;;;;;;;;18.20;76.40;;;;;;10404175;28;90396;-64
2022/11/13 13:49:05;;;;;;;;;;;18.20;76.50;;;;;;10346059;27;88887;-65
2022/11/13 13:54:08;;;;;;;;;;;18.20;76.10;;;;;;10421330;27;89962;-65
2022/11/13 13:59:13;;;;;;;;;;;18.20;76.10;;;;;;10422251;28;89974;-65
2022/11/13 14:04:19;;;;;;;;;;;18.20;76.20;;;;;;10420607;28;89604;-64
2022/11/13 14:09:22;;;;;;;;;;;18.10;76.20;;;;;;10420770;28;89406;-64
2022/11/13 14:14:24;;;;;;;;;;;18.10;76.30;;;;;;10420708;27;89358;-65
2022/11/13 14:19:26;;;;;;;;;;;18.00;76.40;;;;;;10421453;28;88104;-64
2022/11/13 14:24:58;;;;;;;;;;;18.00;76.60;;;;;;10420514;28;89072;-64
2022/11/13 14:30:00;;;;;;;;;;;18.00;76.60;;;;;;10407131;28;88289;-64
2022/11/13 14:35:04;;;;;;;;;;;17.90;76.80;;;;;;10419513;28;89721;-64
2022/11/13 14:40:26;;;;;;;;;;;17.90;76.90;;;;;;10419363;27;89019;-64
2022/11/13 14:45:28;;;;;;;;;;;18.00;76.90;;;;;;10419541;27;89118;-64
2022/11/13 14:50:34;;;;;;;;;;;18.10;76.60;;;;;;10419834;28;89144;-65
2022/11/13 14:55:37;;;;;;;;;;;18.10;76.50;;;;;;10420649;28;90115;-65
2022/11/13 15:00:38;;;;;;;;;;;18.10;76.40;;;;;;10418875;28;89999;-65
2022/11/13 15:05:40;;;;;;;;;;;18.10;76.50;;;;;;10419920;28;88958;-65
2022/11/13 15:10:42;;;;;;;;;;;18.20;76.10;;;;;;10420487;28;89451;-64
2022/11/13 15:15:44;;;;;;;;;;;18.30;75.90;;;;;;10419140;28;89084;-64
2022/11/13 15:20:45;;;;;;;;;;;18.30;75.60;;;;;;10419143;28;90035;-65
2022/11/13 15:25:47;;;;;;;;;;;18.30;77.00;;;;;;10417675;28;91565;-65
2022/11/13 15:30:49;;;;;;;;;;;18.30;77.00;;;;;;10399072;28;89006;-65
2022/11/13 15:35:50;;;;;;;;;;;18.30;76.90;;;;;;10374620;28;89320;-65
2022/11/13 15:40:52;;;;;;;;;;;18.30;76.80;;;;;;10375414;28;89078;-65
2022/11/13 15:45:54;;;;;;;;;;;18.40;76.90;;;;;;10376212;28;90165;-65
2022/11/13 15:50:56;;;;;;;;;;;18.30;76.70;;;;;;10373570;28;88218;-65
2022/11/13 15:56:01;;;;;;;;;;;18.40;76.70;;;;;;10375531;28;89216;-65
2022/11/13 16:01:03;;;;;;;;;;;18.40;76.70;;;;;;10375257;28;87711;-65
2022/11/13 16:06:10;;;;;;;;;;;18.30;76.70;;;;;;10375280;28;89138;-65
2022/11/13 16:11:13;;;;;;;;;;;18.30;76.80;;;;;;10375424;28;89861;-65
2022/11/13 16:16:22;;;;;;;;;;;18.30;76.80;;;;;;10375059;28;90615;-65
2022/11/13 16:21:24;;;;;;;;;;;18.30;76.80;;;;;;10373387;28;89681;-64
2022/11/13 16:26:26;;;;;;;;;;;18.20;76.80;;;;;;10356764;28;88844;-65
2022/11/13 16:31:28;;;;;;;;;;;18.30;76.90;;;;;;10373374;28;89066;-65
2022/11/13 16:36:30;;;;;;;;;;;18.30;77.00;;;;;;10373460;28;89180;-65
2022/11/13 16:41:32;;;;;;;;;;;18.40;76.90;;;;;;10374892;28;88601;-65
2022/11/13 16:46:35;;;;;;;;;;;18.40;76.70;;;;;;10373078;28;88871;-65
2022/11/13 16:51:37;;;;;;;;;;;18.40;76.60;;;;;;10375041;28;88417;-64
2022/11/13 16:56:39;;;;;;;;;;;18.40;76.50;;;;;;10384783;28;88995;-64
2022/11/13 17:01:40;;;;;;;;;;;18.50;77.30;;;;;;10414681;28;88762;-65
2022/11/13 17:06:42;;;;;;;;;;;18.60;77.20;;;;;;10412710;28;89137;-64
2022/11/13 17:11:44;;;;;;;;;;;18.70;77.10;;;;;;10413916;28;89112;-65
2022/11/13 17:16:45;;;;;;;;;;;18.80;76.90;;;;;;10414649;27;89421;-63
2022/11/13 17:21:47;;;;;;;;;;;19.00;76.60;;;;;;10413747;28;89716;-66
2022/11/13 17:26:49;;;;;;;;;;;19.20;75.70;;;;;;10413907;28;88411;-65
2022/11/13 17:31:51;;;;;;;;;;;19.30;75.50;;;;;;10394734;28;89002;-63
2022/11/13 17:36:53;;;;;;;;;;;19.40;75.70;;;;;;10413911;27;89973;-67
2022/11/13 17:41:55;;;;;;;;;;;19.60;75.80;;;;;;10408651;28;89597;-67
2022/11/13 17:46:57;;;;;;;;;;;19.70;75.00;;;;;;10413237;28;89055;-68
2022/11/13 17:51:58;;;;;;;;;;;19.80;77.80;;;;;;10411245;28;89062;-65
2022/11/13 17:57:01;;;;;;;;;;;19.90;79.00;;;;;;10413488;27;90553;-66
2022/11/13 18:02:02;;;;;;;;;;;20.00;81.90;;;;;;10420282;28;90099;-66
2022/11/13 18:07:04;;;;;;;;;;;20.30;79.60;;;;;;10402432;28;89959;-63
2022/11/13 18:12:07;;;;;;;;;;;20.30;77.50;;;;;;10421107;27;88789;-63
2022/11/13 18:17:09;;;;;;;;;;;20.10;77.20;;;;;;10420711;28;89114;-63
2022/11/13 18:22:10;;;;;;;;;;;19.90;77.10;;;;;;10418996;28;90111;-64
2022/11/13 18:27:12;;;;;;;;;;;19.80;77.50;;;;;;10420177;28;89978;-65
2022/11/13 18:32:14;;;;;;;;;;;19.60;77.60;;;;;;10420141;28;88566;-64
2022/11/13 18:37:16;;;;;;;;;;;19.50;77.80;;;;;;10419553;28;90018;-65
2022/11/13 18:42:18;;;;;;;;;;;19.40;78.00;;;;;;10419902;28;90012;-64
2022/11/13 18:47:19;;;;;;;;;;;19.30;78.10;;;;;;10418062;28;90707;-64
2022/11/13 18:52:21;;;;;;;;;;;19.20;78.30;;;;;;10418743;28;89331;-65
2022/11/13 18:57:23;;;;;;;;;;;19.10;77.90;;;;;;10418597;28;89055;-65
2022/11/13 19:02:26;;;;;;;;;;;19.00;78.00;;;;;;10417120;28;89296;-65
2022/11/13 19:07:28;;;;;;;;;;;19.00;77.90;;;;;;10416840;27;89049;-65
2022/11/13 19:12:30;;;;;;;;;;;19.00;78.00;;;;;;10417986;28;89253;-65
2022/11/13 19:17:32;;;;;;;;;;;19.00;77.90;;;;;;10417674;28;89416;-67
2022/11/13 19:22:33;;;;;;;;;;;19.00;77.90;;;;;;10419121;27;88651;-65
2022/11/13 19:27:35;;;;;;;;;;;19.00;77.80;;;;;;10417835;28;90385;-65
2022/11/13 19:32:37;;;;;;;;;;;19.00;77.90;;;;;;10416903;28;89081;-65
2022/11/13 19:37:39;;;;;;;;;;;19.00;77.70;;;;;;10416159;28;89702;-65
2022/11/13 19:42:40;;;;;;;;;;;19.10;77.60;;;;;;10416948;28;90024;-65
2022/11/13 19:47:42;;;;;;;;;;;19.00;77.40;;;;;;10416926;28;90371;-65
2022/11/13 19:52:44;;;;;;;;;;;19.00;77.30;;;;;;10416814;28;90058;-65
2022/11/13 19:57:46;;;;;;;;;;;19.00;77.50;;;;;;10417027;28;88183;-65
2022/11/13 20:02:48;;;;;;;;;;;19.00;77.30;;;;;;10415901;28;88542;-65
2022/11/13 20:07:49;;;;;;;;;;;19.00;77.20;;;;;;10416986;28;89015;-65
2022/11/13 20:12:51;;;;;;;;;;;19.00;77.10;;;;;;10417610;28;88339;-65
2022/11/13 20:17:53;;;;;;;;;;;18.90;77.20;;;;;;10416055;28;90332;-65
2022/11/13 20:22:55;;;;;;;;;;;18.90;77.10;;;;;;10414728;27;90079;-65
2022/11/13 20:27:56;;;;;;;;;;;18.90;76.90;;;;;;10414755;28;90758;-65
2022/11/13 20:32:58;;;;;;;;;;;18.90;76.80;;;;;;10415955;28;89046;-65
2022/11/13 20:37:59;;;;;;;;;;;18.90;76.70;;;;;;10416423;28;90130;-65
2022/11/13 20:43:01;;;;;;;;;;;18.90;76.90;;;;;;10415946;28;88807;-65
2022/11/13 20:48:03;;;;;;;;;;;18.90;76.70;;;;;;10415711;28;89979;-65
2022/11/13 20:53:05;;;;;;;;;;;18.90;76.60;;;;;;10415443;27;88955;-65
2022/11/13 20:58:06;;;;;;;;;;;18.90;76.50;;;;;;10398135;28;89391;-65
2022/11/13 21:03:08;;;;;;;;;;;18.90;76.60;;;;;;10415283;28;88613;-65
2022/11/13 21:08:10;;;;;;;;;;;18.90;76.50;;;;;;10416084;28;90043;-65
2022/11/13 21:13:12;;;;;;;;;;;18.90;76.30;;;;;;10416041;28;88512;-65
2022/11/13 21:18:13;;;;;;;;;;;18.90;76.20;;;;;;10414361;28;89730;-65
2022/11/13 21:23:15;;;;;;;;;;;18.80;76.20;;;;;;10398616;28;89714;-65
2022/11/13 21:28:16;;;;;;;;;;;18.80;76.10;;;;;;10396991;27;89970;-65
2022/11/13 21:33:24;;;;;;;;;;;18.70;76.00;;;;;;10417712;28;89858;-66
2022/11/13 21:38:26;;;;;;;;;;;18.70;76.00;;;;;;10404012;27;89794;-63
2022/11/13 21:43:28;;;;;;;;;;;18.60;76.60;;;;;;10420942;28;90151;-62
2022/11/13 21:48:30;;;;;;;;;;;18.70;76.80;;;;;;10420663;28;89101;-63
2022/11/13 21:53:34;;;;;;;;;;;18.60;76.70;;;;;;10421170;27;88521;-65
2022/11/13 21:58:37;;;;;;;;;;;18.60;76.70;;;;;;10419774;27;88144;-65
2022/11/13 22:03:38;;;;;;;;;;;18.60;76.60;;;;;;10401768;28;89030;-65
2022/11/13 22:08:40;;;;;;;;;;;18.50;76.70;;;;;;10419992;28;90817;-65
2022/11/13 22:13:42;;;;;;;;;;;18.50;76.70;;;;;;10584265;28;89029;-64
2022/11/13 22:18:44;;;;;;;;;;;18.50;76.70;;;;;;10594371;28;19939;-64
2022/11/13 22:23:46;;;;;;;;;;;18.50;76.40;;;;;;10593310;28;20386;-65
2022/11/13 22:28:48;;;;;;;;;;;18.40;76.40;;;;;;10594377;28;19932;-63
2022/11/13 22:33:50;;;;;;;;;;;18.40;76.30;;;;;;10592207;28;19932;-65
2022/11/13 22:38:56;;;;;;;;;;;18.30;76.10;;;;;;10590155;28;20023;-65
2022/11/13 22:43:59;;;;;;;;;;;18.20;76.00;;;;;;10588676;28;19932;-65
2022/11/13 22:49:01;;;;;;;;;;;18.20;75.90;;;;;;10591057;27;19967;-64
2022/11/13 22:54:05;;;;;;;;;;;18.10;75.80;;;;;;10593187;28;19932;-65
2022/11/13 22:59:08;;;;;;;;;;;18.10;75.70;;;;;;10593158;28;20298;-65
2022/11/13 23:04:11;;;;;;;;;;;18.00;75.60;;;;;;10590965;28;19938;-65
2022/11/13 23:09:13;;;;;;;;;;;18.00;76.50;;;;;;10593019;27;20025;-65
2022/11/13 23:14:14;;;;;;;;;;;17.90;75.40;;;;;;10590650;27;20030;-65
2022/11/13 23:19:16;;;;;;;;;;;17.90;75.30;;;;;;10591849;28;19932;-65
2022/11/13 23:24:18;;;;;;;;;;;17.90;75.10;;;;;;10591339;28;20402;-65
2022/11/13 23:29:20;;;;;;;;;;;17.80;75.00;;;;;;10592022;28;20023;-65
2022/11/13 23:34:22;;;;;;;;;;;17.80;74.80;;;;;;10591298;27;19932;-65
2022/11/13 23:39:43;;;;;;;;;;;17.80;74.80;;;;;;10591703;27;20383;-64
2022/11/13 23:44:45;;;;;;;;;;;17.80;74.70;;;;;;10589085;27;20025;-65
2022/11/13 23:49:46;;;;;;;;;;;17.70;74.50;;;;;;10591582;28;20019;-65
2022/11/13 23:54:48;;;;;;;;;;;17.70;74.50;;;;;;10589645;27;19932;-65
2022/11/13 23:59:50;;;;;;;;;;;17.70;74.50;;;;;;10589967;28;19932;-65
